sensor_id;sensor_type;location;lat;lon;timestamp;temperature;humidity
15630;DHT22;7914;50.842;0.166;2023-12-04T00:00:50;6.40;100.00
15630;DHT22;7914;50.842;0.166;2023-12-04T00:03:15;6.30;100.00
15630;DHT22;7914;50.842;0.166;2023-12-04T00:05:44;6.40;100.00
15630;DHT22;7914;50.842;0.166;2023-12-04T00:08:10;6.30;100.00
15630;DHT22;7914;50.842;0.166;2023-12-04T00:10:36;6.30;100.00
15630;DHT22;7914;50.842;0.166;2023-12-04T00:13:02;6.30;100.00
15630;DHT22;7914;50.842;0.166;2023-12-04T00:15:28;6.30;100.00
15630;DHT22;7914;50.842;0.166;2023-12-04T00:17:54;6.30;100.00
15630;DHT22;7914;50.842;0.166;2023-12-04T00:20:19;6.20;100.00
15630;DHT22;7914;50.842;0.166;2023-12-04T00:22:45;6.20;100.00
15630;DHT22;7914;50.842;0.166;2023-12-04T00:25:11;6.30;100.00
15630;DHT22;7914;50.842;0.166;2023-12-04T00:27:37;6.30;100.00
15630;DHT22;7914;50.842;0.166;2023-12-04T00:30:03;6.20;100.00
15630;DHT22;7914;50.842;0.166;2023-12-04T00:32:30;6.20;100.00
15630;DHT22;7914;50.842;0.166;2023-12-04T00:34:56;6.20;100.00
15630;DHT22;7914;50.842;0.166;2023-12-04T00:37:22;6.20;100.00
15630;DHT22;7914;50.842;0.166;2023-12-04T00:39:47;6.10;100.00
15630;DHT22;7914;50.842;0.166;2023-12-04T00:42:13;6.10;100.00
15630;DHT22;7914;50.842;0.166;2023-12-04T00:44:39;6.10;100.00
15630;DHT22;7914;50.842;0.166;2023-12-04T00:47:05;6.20;100.00
15630;DHT22;7914;50.842;0.166;2023-12-04T00:49:31;6.10;100.00
15630;DHT22;7914;50.842;0.166;2023-12-04T00:51:56;6.10;100.00
15630;DHT22;7914;50.842;0.166;2023-12-04T00:54:22;6.10;100.00
15630;DHT22;7914;50.842;0.166;2023-12-04T00:56:48;6.10;100.00
15630;DHT22;7914;50.842;0.166;2023-12-04T00:59:13;6.10;100.00
15630;DHT22;7914;50.842;0.166;2023-12-04T01:01:39;6.10;100.00
15630;DHT22;7914;50.842;0.166;2023-12-04T01:04:05;6.00;100.00
15630;DHT22;7914;50.842;0.166;2023-12-04T01:06:31;6.00;100.00
15630;DHT22;7914;50.842;0.166;2023-12-04T01:08:56;6.00;100.00
15630;DHT22;7914;50.842;0.166;2023-12-04T01:11:23;6.00;100.00
15630;DHT22;7914;50.842;0.166;2023-12-04T01:13:49;6.00;100.00
15630;DHT22;7914;50.842;0.166;2023-12-04T01:16:15;6.00;100.00
15630;DHT22;7914;50.842;0.166;2023-12-04T01:18:42;6.00;100.00
15630;DHT22;7914;50.842;0.166;2023-12-04T01:21:08;6.00;100.00
15630;DHT22;7914;50.842;0.166;2023-12-04T01:23:35;6.00;100.00
15630;DHT22;7914;50.842;0.166;2023-12-04T01:26:01;6.00;100.00
15630;DHT22;7914;50.842;0.166;2023-12-04T01:28:27;5.90;100.00
15630;DHT22;7914;50.842;0.166;2023-12-04T01:30:53;5.90;100.00
15630;DHT22;7914;50.842;0.166;2023-12-04T01:33:19;6.00;100.00
15630;DHT22;7914;50.842;0.166;2023-12-04T01:35:44;6.00;100.00
15630;DHT22;7914;50.842;0.166;2023-12-04T01:38:10;6.00;100.00
15630;DHT22;7914;50.842;0.166;2023-12-04T01:40:36;6.00;100.00
15630;DHT22;7914;50.842;0.166;2023-12-04T01:43:02;6.00;100.00
15630;DHT22;7914;50.842;0.166;2023-12-04T01:45:27;6.10;100.00
15630;DHT22;7914;50.842;0.166;2023-12-04T01:47:53;6.10;100.00
15630;DHT22;7914;50.842;0.166;2023-12-04T01:50:20;6.10;100.00
15630;DHT22;7914;50.842;0.166;2023-12-04T01:52:46;6.20;100.00
15630;DHT22;7914;50.842;0.166;2023-12-04T01:55:13;6.20;100.00
15630;DHT22;7914;50.842;0.166;2023-12-04T01:57:41;6.20;100.00
15630;DHT22;7914;50.842;0.166;2023-12-04T02:00:07;6.20;100.00
15630;DHT22;7914;50.842;0.166;2023-12-04T02:02:40;6.20;100.00
15630;DHT22;7914;50.842;0.166;2023-12-04T02:05:08;6.20;100.00
15630;DHT22;7914;50.842;0.166;2023-12-04T02:07:34;6.20;100.00
15630;DHT22;7914;50.842;0.166;2023-12-04T02:10:03;6.30;100.00
15630;DHT22;7914;50.842;0.166;2023-12-04T02:12:29;6.30;100.00
15630;DHT22;7914;50.842;0.166;2023-12-04T02:14:56;6.30;100.00
15630;DHT22;7914;50.842;0.166;2023-12-04T02:17:22;6.30;100.00
15630;DHT22;7914;50.842;0.166;2023-12-04T02:19:49;6.30;100.00
15630;DHT22;7914;50.842;0.166;2023-12-04T02:22:14;6.30;100.00
15630;DHT22;7914;50.842;0.166;2023-12-04T02:24:40;6.30;100.00
15630;DHT22;7914;50.842;0.166;2023-12-04T02:27:16;6.30;100.00
15630;DHT22;7914;50.842;0.166;2023-12-04T02:29:58;6.30;100.00
15630;DHT22;7914;50.842;0.166;2023-12-04T02:32:24;6.30;100.00
15630;DHT22;7914;50.842;0.166;2023-12-04T02:34:53;6.30;100.00
15630;DHT22;7914;50.842;0.166;2023-12-04T02:37:20;6.30;100.00
15630;DHT22;7914;50.842;0.166;2023-12-04T02:39:46;6.40;100.00
15630;DHT22;7914;50.842;0.166;2023-12-04T02:42:14;6.30;100.00
15630;DHT22;7914;50.842;0.166;2023-12-04T02:44:40;6.30;100.00
15630;DHT22;7914;50.842;0.166;2023-12-04T02:47:05;6.40;100.00
15630;DHT22;7914;50.842;0.166;2023-12-04T02:49:31;6.40;100.00
15630;DHT22;7914;50.842;0.166;2023-12-04T02:51:57;6.40;100.00
15630;DHT22;7914;50.842;0.166;2023-12-04T02:54:23;6.40;100.00
15630;DHT22;7914;50.842;0.166;2023-12-04T02:56:49;6.40;100.00
15630;DHT22;7914;50.842;0.166;2023-12-04T02:59:15;6.40;100.00
15630;DHT22;7914;50.842;0.166;2023-12-04T03:01:40;6.40;100.00
15630;DHT22;7914;50.842;0.166;2023-12-04T03:04:06;6.40;100.00
15630;DHT22;7914;50.842;0.166;2023-12-04T03:06:32;6.40;100.00
15630;DHT22;7914;50.842;0.166;2023-12-04T03:08:59;6.50;100.00
15630;DHT22;7914;50.842;0.166;2023-12-04T03:11:25;6.50;100.00
15630;DHT22;7914;50.842;0.166;2023-12-04T03:13:51;6.50;100.00
15630;DHT22;7914;50.842;0.166;2023-12-04T03:16:17;6.40;100.00
15630;DHT22;7914;50.842;0.166;2023-12-04T03:18:44;6.40;100.00
15630;DHT22;7914;50.842;0.166;2023-12-04T03:21:11;6.40;100.00
15630;DHT22;7914;50.842;0.166;2023-12-04T03:23:37;6.40;100.00
15630;DHT22;7914;50.842;0.166;2023-12-04T03:26:03;6.30;100.00
15630;DHT22;7914;50.842;0.166;2023-12-04T03:28:29;6.30;100.00
15630;DHT22;7914;50.842;0.166;2023-12-04T03:30:55;6.30;100.00
15630;DHT22;7914;50.842;0.166;2023-12-04T03:33:20;6.30;100.00
15630;DHT22;7914;50.842;0.166;2023-12-04T03:35:46;6.30;100.00
15630;DHT22;7914;50.842;0.166;2023-12-04T03:38:12;6.20;100.00
15630;DHT22;7914;50.842;0.166;2023-12-04T03:40:38;6.20;100.00
15630;DHT22;7914;50.842;0.166;2023-12-04T03:43:04;6.20;100.00
15630;DHT22;7914;50.842;0.166;2023-12-04T03:45:29;6.20;100.00
15630;DHT22;7914;50.842;0.166;2023-12-04T03:47:55;6.20;100.00
15630;DHT22;7914;50.842;0.166;2023-12-04T03:50:21;6.20;100.00
15630;DHT22;7914;50.842;0.166;2023-12-04T03:52:47;6.20;100.00
15630;DHT22;7914;50.842;0.166;2023-12-04T03:55:12;6.20;100.00
15630;DHT22;7914;50.842;0.166;2023-12-04T03:57:38;6.20;100.00
15630;DHT22;7914;50.842;0.166;2023-12-04T04:00:05;6.20;100.00
15630;DHT22;7914;50.842;0.166;2023-12-04T04:02:30;6.20;100.00
15630;DHT22;7914;50.842;0.166;2023-12-04T04:04:56;6.30;100.00
15630;DHT22;7914;50.842;0.166;2023-12-04T04:07:22;6.30;100.00
15630;DHT22;7914;50.842;0.166;2023-12-04T04:09:48;6.30;100.00
15630;DHT22;7914;50.842;0.166;2023-12-04T04:12:13;6.30;100.00
15630;DHT22;7914;50.842;0.166;2023-12-04T04:14:39;6.30;100.00
15630;DHT22;7914;50.842;0.166;2023-12-04T04:17:05;6.30;100.00
15630;DHT22;7914;50.842;0.166;2023-12-04T04:19:30;6.30;100.00
15630;DHT22;7914;50.842;0.166;2023-12-04T04:21:56;6.20;100.00
15630;DHT22;7914;50.842;0.166;2023-12-04T04:24:22;6.30;100.00
15630;DHT22;7914;50.842;0.166;2023-12-04T04:26:48;6.20;100.00
15630;DHT22;7914;50.842;0.166;2023-12-04T04:29:13;6.20;100.00
15630;DHT22;7914;50.842;0.166;2023-12-04T04:31:39;6.20;100.00
15630;DHT22;7914;50.842;0.166;2023-12-04T04:34:05;6.20;100.00
15630;DHT22;7914;50.842;0.166;2023-12-04T04:36:30;6.20;100.00
15630;DHT22;7914;50.842;0.166;2023-12-04T04:38:56;6.20;100.00
15630;DHT22;7914;50.842;0.166;2023-12-04T04:41:22;6.20;100.00
15630;DHT22;7914;50.842;0.166;2023-12-04T04:43:48;6.20;100.00
15630;DHT22;7914;50.842;0.166;2023-12-04T04:46:14;6.10;100.00
15630;DHT22;7914;50.842;0.166;2023-12-04T04:48:40;6.10;100.00
15630;DHT22;7914;50.842;0.166;2023-12-04T04:51:06;6.10;100.00
15630;DHT22;7914;50.842;0.166;2023-12-04T04:53:32;6.10;100.00
15630;DHT22;7914;50.842;0.166;2023-12-04T04:55:58;6.10;100.00
15630;DHT22;7914;50.842;0.166;2023-12-04T04:58:23;6.10;100.00
15630;DHT22;7914;50.842;0.166;2023-12-04T05:00:49;6.10;100.00
15630;DHT22;7914;50.842;0.166;2023-12-04T05:03:15;6.10;100.00
15630;DHT22;7914;50.842;0.166;2023-12-04T05:05:41;6.10;100.00
15630;DHT22;7914;50.842;0.166;2023-12-04T05:08:06;6.10;100.00
15630;DHT22;7914;50.842;0.166;2023-12-04T05:10:32;6.10;100.00
15630;DHT22;7914;50.842;0.166;2023-12-04T05:12:58;6.10;100.00
15630;DHT22;7914;50.842;0.166;2023-12-04T05:15:24;6.10;100.00
15630;DHT22;7914;50.842;0.166;2023-12-04T05:17:50;6.10;100.00
15630;DHT22;7914;50.842;0.166;2023-12-04T05:20:16;6.10;100.00
15630;DHT22;7914;50.842;0.166;2023-12-04T05:22:42;6.10;100.00
15630;DHT22;7914;50.842;0.166;2023-12-04T05:25:08;6.10;100.00
15630;DHT22;7914;50.842;0.166;2023-12-04T05:27:34;6.10;100.00
15630;DHT22;7914;50.842;0.166;2023-12-04T05:29:59;6.10;100.00
15630;DHT22;7914;50.842;0.166;2023-12-04T05:32:25;6.10;100.00
15630;DHT22;7914;50.842;0.166;2023-12-04T05:34:50;6.10;100.00
15630;DHT22;7914;50.842;0.166;2023-12-04T05:37:16;6.10;100.00
15630;DHT22;7914;50.842;0.166;2023-12-04T05:39:42;6.10;100.00
15630;DHT22;7914;50.842;0.166;2023-12-04T05:42:08;6.10;100.00
15630;DHT22;7914;50.842;0.166;2023-12-04T05:44:34;6.20;100.00
15630;DHT22;7914;50.842;0.166;2023-12-04T05:47:00;6.20;100.00
15630;DHT22;7914;50.842;0.166;2023-12-04T05:49:26;6.20;100.00
15630;DHT22;7914;50.842;0.166;2023-12-04T05:51:52;6.20;100.00
15630;DHT22;7914;50.842;0.166;2023-12-04T05:54:17;6.20;100.00
15630;DHT22;7914;50.842;0.166;2023-12-04T05:56:43;6.20;100.00
15630;DHT22;7914;50.842;0.166;2023-12-04T05:59:09;6.20;100.00
15630;DHT22;7914;50.842;0.166;2023-12-04T06:01:34;6.20;100.00
15630;DHT22;7914;50.842;0.166;2023-12-04T06:04:00;6.20;100.00
15630;DHT22;7914;50.842;0.166;2023-12-04T06:06:26;6.30;100.00
15630;DHT22;7914;50.842;0.166;2023-12-04T06:08:52;6.30;100.00
15630;DHT22;7914;50.842;0.166;2023-12-04T06:11:18;6.30;100.00
15630;DHT22;7914;50.842;0.166;2023-12-04T06:13:44;6.40;100.00
15630;DHT22;7914;50.842;0.166;2023-12-04T06:16:10;6.40;100.00
15630;DHT22;7914;50.842;0.166;2023-12-04T06:18:35;6.40;100.00
15630;DHT22;7914;50.842;0.166;2023-12-04T06:21:01;6.40;100.00
15630;DHT22;7914;50.842;0.166;2023-12-04T06:23:27;6.40;100.00
15630;DHT22;7914;50.842;0.166;2023-12-04T06:25:53;6.40;100.00
15630;DHT22;7914;50.842;0.166;2023-12-04T06:28:19;6.40;100.00
15630;DHT22;7914;50.842;0.166;2023-12-04T06:30:45;6.40;100.00
15630;DHT22;7914;50.842;0.166;2023-12-04T06:33:11;6.50;100.00
15630;DHT22;7914;50.842;0.166;2023-12-04T06:35:38;6.50;100.00
15630;DHT22;7914;50.842;0.166;2023-12-04T06:38:08;6.50;100.00
15630;DHT22;7914;50.842;0.166;2023-12-04T06:40:34;6.50;100.00
15630;DHT22;7914;50.842;0.166;2023-12-04T06:43:01;6.50;100.00
15630;DHT22;7914;50.842;0.166;2023-12-04T06:45:27;6.50;100.00
15630;DHT22;7914;50.842;0.166;2023-12-04T06:47:53;6.50;100.00
15630;DHT22;7914;50.842;0.166;2023-12-04T06:50:19;6.60;100.00
15630;DHT22;7914;50.842;0.166;2023-12-04T06:52:45;6.60;100.00
15630;DHT22;7914;50.842;0.166;2023-12-04T06:55:12;6.60;100.00
15630;DHT22;7914;50.842;0.166;2023-12-04T06:57:38;6.60;100.00
15630;DHT22;7914;50.842;0.166;2023-12-04T07:00:04;6.60;100.00
15630;DHT22;7914;50.842;0.166;2023-12-04T07:02:32;6.60;100.00
15630;DHT22;7914;50.842;0.166;2023-12-04T07:04:58;6.60;100.00
15630;DHT22;7914;50.842;0.166;2023-12-04T07:07:23;6.60;100.00
15630;DHT22;7914;50.842;0.166;2023-12-04T07:09:49;6.60;100.00
15630;DHT22;7914;50.842;0.166;2023-12-04T07:12:15;6.60;100.00
15630;DHT22;7914;50.842;0.166;2023-12-04T07:14:40;6.60;100.00
15630;DHT22;7914;50.842;0.166;2023-12-04T07:17:07;6.60;100.00
15630;DHT22;7914;50.842;0.166;2023-12-04T07:19:33;6.60;100.00
15630;DHT22;7914;50.842;0.166;2023-12-04T07:21:58;6.60;100.00
15630;DHT22;7914;50.842;0.166;2023-12-04T07:24:24;6.60;100.00
15630;DHT22;7914;50.842;0.166;2023-12-04T07:26:51;6.60;100.00
15630;DHT22;7914;50.842;0.166;2023-12-04T07:29:18;6.60;100.00
15630;DHT22;7914;50.842;0.166;2023-12-04T07:31:44;6.60;100.00
15630;DHT22;7914;50.842;0.166;2023-12-04T07:34:10;6.60;100.00
15630;DHT22;7914;50.842;0.166;2023-12-04T07:36:35;6.60;100.00
15630;DHT22;7914;50.842;0.166;2023-12-04T07:39:01;6.60;100.00
15630;DHT22;7914;50.842;0.166;2023-12-04T07:41:27;6.60;100.00
15630;DHT22;7914;50.842;0.166;2023-12-04T07:43:52;6.60;100.00
15630;DHT22;7914;50.842;0.166;2023-12-04T07:46:20;6.70;100.00
15630;DHT22;7914;50.842;0.166;2023-12-04T07:48:45;6.60;100.00
15630;DHT22;7914;50.842;0.166;2023-12-04T07:51:11;6.70;100.00
15630;DHT22;7914;50.842;0.166;2023-12-04T07:53:37;6.70;100.00
15630;DHT22;7914;50.842;0.166;2023-12-04T07:56:03;6.70;100.00
15630;DHT22;7914;50.842;0.166;2023-12-04T07:58:30;6.70;100.00
15630;DHT22;7914;50.842;0.166;2023-12-04T08:00:56;6.70;100.00
15630;DHT22;7914;50.842;0.166;2023-12-04T08:03:22;6.70;100.00
15630;DHT22;7914;50.842;0.166;2023-12-04T08:05:53;6.70;100.00
15630;DHT22;7914;50.842;0.166;2023-12-04T08:08:18;6.70;100.00
15630;DHT22;7914;50.842;0.166;2023-12-04T08:10:44;6.70;100.00
15630;DHT22;7914;50.842;0.166;2023-12-04T08:13:10;6.70;100.00
15630;DHT22;7914;50.842;0.166;2023-12-04T08:15:36;6.70;100.00
15630;DHT22;7914;50.842;0.166;2023-12-04T08:18:02;6.70;100.00
15630;DHT22;7914;50.842;0.166;2023-12-04T08:20:28;6.70;100.00
15630;DHT22;7914;50.842;0.166;2023-12-04T08:22:54;6.70;100.00
15630;DHT22;7914;50.842;0.166;2023-12-04T08:25:20;6.80;100.00
15630;DHT22;7914;50.842;0.166;2023-12-04T08:27:46;6.80;100.00
15630;DHT22;7914;50.842;0.166;2023-12-04T08:30:13;6.80;100.00
15630;DHT22;7914;50.842;0.166;2023-12-04T08:32:39;6.90;100.00
15630;DHT22;7914;50.842;0.166;2023-12-04T08:35:05;6.90;100.00
15630;DHT22;7914;50.842;0.166;2023-12-04T08:37:31;6.90;100.00
15630;DHT22;7914;50.842;0.166;2023-12-04T08:39:57;7.00;100.00
15630;DHT22;7914;50.842;0.166;2023-12-04T08:42:23;7.00;100.00
15630;DHT22;7914;50.842;0.166;2023-12-04T08:44:48;7.00;100.00
15630;DHT22;7914;50.842;0.166;2023-12-04T08:47:14;7.00;100.00
15630;DHT22;7914;50.842;0.166;2023-12-04T08:49:40;7.00;100.00
15630;DHT22;7914;50.842;0.166;2023-12-04T08:52:07;7.00;100.00
15630;DHT22;7914;50.842;0.166;2023-12-04T08:54:33;7.00;100.00
15630;DHT22;7914;50.842;0.166;2023-12-04T08:56:59;7.00;100.00
15630;DHT22;7914;50.842;0.166;2023-12-04T08:59:25;7.00;100.00
15630;DHT22;7914;50.842;0.166;2023-12-04T09:01:51;7.10;100.00
15630;DHT22;7914;50.842;0.166;2023-12-04T09:04:16;7.10;100.00
15630;DHT22;7914;50.842;0.166;2023-12-04T09:06:43;7.10;100.00
15630;DHT22;7914;50.842;0.166;2023-12-04T09:09:08;7.10;100.00
15630;DHT22;7914;50.842;0.166;2023-12-04T09:11:34;7.10;100.00
15630;DHT22;7914;50.842;0.166;2023-12-04T09:14:00;7.10;100.00
15630;DHT22;7914;50.842;0.166;2023-12-04T09:16:25;7.10;100.00
15630;DHT22;7914;50.842;0.166;2023-12-04T09:18:51;7.10;100.00
15630;DHT22;7914;50.842;0.166;2023-12-04T09:21:19;7.10;100.00
15630;DHT22;7914;50.842;0.166;2023-12-04T09:23:44;7.10;100.00
15630;DHT22;7914;50.842;0.166;2023-12-04T09:26:15;7.10;100.00
15630;DHT22;7914;50.842;0.166;2023-12-04T09:28:42;7.10;100.00
15630;DHT22;7914;50.842;0.166;2023-12-04T09:31:08;7.10;100.00
15630;DHT22;7914;50.842;0.166;2023-12-04T09:33:34;7.10;100.00
15630;DHT22;7914;50.842;0.166;2023-12-04T09:36:02;7.10;100.00
15630;DHT22;7914;50.842;0.166;2023-12-04T09:38:28;7.10;100.00
15630;DHT22;7914;50.842;0.166;2023-12-04T09:40:58;7.10;100.00
15630;DHT22;7914;50.842;0.166;2023-12-04T09:43:33;7.10;100.00
15630;DHT22;7914;50.842;0.166;2023-12-04T09:46:00;7.10;100.00
15630;DHT22;7914;50.842;0.166;2023-12-04T09:48:27;7.10;100.00
15630;DHT22;7914;50.842;0.166;2023-12-04T09:50:54;7.10;100.00
15630;DHT22;7914;50.842;0.166;2023-12-04T09:53:21;7.10;100.00
15630;DHT22;7914;50.842;0.166;2023-12-04T09:55:49;7.20;100.00
15630;DHT22;7914;50.842;0.166;2023-12-04T09:58:15;7.10;100.00
15630;DHT22;7914;50.842;0.166;2023-12-04T10:00:44;7.10;100.00
15630;DHT22;7914;50.842;0.166;2023-12-04T10:03:10;7.10;100.00
15630;DHT22;7914;50.842;0.166;2023-12-04T10:05:38;7.20;100.00
15630;DHT22;7914;50.842;0.166;2023-12-04T10:08:04;7.20;100.00
15630;DHT22;7914;50.842;0.166;2023-12-04T10:10:30;7.20;100.00
15630;DHT22;7914;50.842;0.166;2023-12-04T10:12:55;7.20;100.00
15630;DHT22;7914;50.842;0.166;2023-12-04T10:15:21;7.20;100.00
15630;DHT22;7914;50.842;0.166;2023-12-04T10:17:47;7.20;100.00
15630;DHT22;7914;50.842;0.166;2023-12-04T10:20:14;7.20;100.00
15630;DHT22;7914;50.842;0.166;2023-12-04T10:23:01;7.20;100.00
15630;DHT22;7914;50.842;0.166;2023-12-04T10:25:29;7.30;100.00
15630;DHT22;7914;50.842;0.166;2023-12-04T10:28:08;7.30;100.00
15630;DHT22;7914;50.842;0.166;2023-12-04T10:30:34;7.30;100.00
15630;DHT22;7914;50.842;0.166;2023-12-04T10:33:03;7.30;100.00
15630;DHT22;7914;50.842;0.166;2023-12-04T10:35:34;7.30;100.00
15630;DHT22;7914;50.842;0.166;2023-12-04T10:38:03;7.30;100.00
15630;DHT22;7914;50.842;0.166;2023-12-04T10:40:31;7.30;100.00
15630;DHT22;7914;50.842;0.166;2023-12-04T10:43:14;7.30;100.00
15630;DHT22;7914;50.842;0.166;2023-12-04T10:45:41;7.30;100.00
15630;DHT22;7914;50.842;0.166;2023-12-04T10:48:08;7.30;100.00
15630;DHT22;7914;50.842;0.166;2023-12-04T10:50:36;7.30;100.00
15630;DHT22;7914;50.842;0.166;2023-12-04T10:53:04;7.30;100.00
15630;DHT22;7914;50.842;0.166;2023-12-04T10:55:34;7.30;100.00
15630;DHT22;7914;50.842;0.166;2023-12-04T10:58:02;7.30;100.00
15630;DHT22;7914;50.842;0.166;2023-12-04T11:00:34;7.30;100.00
15630;DHT22;7914;50.842;0.166;2023-12-04T11:03:10;7.40;100.00
15630;DHT22;7914;50.842;0.166;2023-12-04T11:05:41;7.30;100.00
15630;DHT22;7914;50.842;0.166;2023-12-04T11:08:13;7.40;100.00
15630;DHT22;7914;50.842;0.166;2023-12-04T11:13:22;7.40;100.00
15630;DHT22;7914;50.842;0.166;2023-12-04T11:15:50;7.40;100.00
15630;DHT22;7914;50.842;0.166;2023-12-04T11:18:21;7.40;100.00
15630;DHT22;7914;50.842;0.166;2023-12-04T11:20:58;7.40;100.00
15630;DHT22;7914;50.842;0.166;2023-12-04T11:23:25;7.50;100.00
15630;DHT22;7914;50.842;0.166;2023-12-04T11:25:51;7.50;100.00
15630;DHT22;7914;50.842;0.166;2023-12-04T11:28:19;7.50;100.00
15630;DHT22;7914;50.842;0.166;2023-12-04T11:30:45;7.50;100.00
15630;DHT22;7914;50.842;0.166;2023-12-04T11:33:12;7.50;100.00
15630;DHT22;7914;50.842;0.166;2023-12-04T11:35:38;7.50;100.00
15630;DHT22;7914;50.842;0.166;2023-12-04T11:38:07;7.60;100.00
15630;DHT22;7914;50.842;0.166;2023-12-04T11:40:35;7.60;100.00
15630;DHT22;7914;50.842;0.166;2023-12-04T11:43:29;7.60;100.00
15630;DHT22;7914;50.842;0.166;2023-12-04T11:46:10;7.70;100.00
15630;DHT22;7914;50.842;0.166;2023-12-04T11:48:39;7.70;100.00
15630;DHT22;7914;50.842;0.166;2023-12-04T11:51:08;7.70;100.00
15630;DHT22;7914;50.842;0.166;2023-12-04T11:53:38;7.80;100.00
15630;DHT22;7914;50.842;0.166;2023-12-04T11:56:12;7.80;100.00
15630;DHT22;7914;50.842;0.166;2023-12-04T11:58:44;7.90;100.00
15630;DHT22;7914;50.842;0.166;2023-12-04T12:01:10;7.90;100.00
15630;DHT22;7914;50.842;0.166;2023-12-04T12:03:36;7.90;100.00
15630;DHT22;7914;50.842;0.166;2023-12-04T12:06:03;8.00;100.00
15630;DHT22;7914;50.842;0.166;2023-12-04T12:08:29;8.00;100.00
15630;DHT22;7914;50.842;0.166;2023-12-04T12:10:55;8.00;100.00
15630;DHT22;7914;50.842;0.166;2023-12-04T12:13:21;7.90;100.00
15630;DHT22;7914;50.842;0.166;2023-12-04T12:15:47;7.90;100.00
15630;DHT22;7914;50.842;0.166;2023-12-04T12:18:16;7.90;100.00
15630;DHT22;7914;50.842;0.166;2023-12-04T12:20:41;7.90;100.00
15630;DHT22;7914;50.842;0.166;2023-12-04T12:23:08;7.80;100.00
15630;DHT22;7914;50.842;0.166;2023-12-04T12:25:35;7.80;100.00
15630;DHT22;7914;50.842;0.166;2023-12-04T12:28:07;7.80;100.00
15630;DHT22;7914;50.842;0.166;2023-12-04T12:30:33;7.80;100.00
15630;DHT22;7914;50.842;0.166;2023-12-04T12:32:59;7.80;100.00
15630;DHT22;7914;50.842;0.166;2023-12-04T12:35:25;7.80;100.00
15630;DHT22;7914;50.842;0.166;2023-12-04T12:37:51;7.80;100.00
15630;DHT22;7914;50.842;0.166;2023-12-04T12:40:21;7.90;100.00
15630;DHT22;7914;50.842;0.166;2023-12-04T12:42:47;7.90;100.00
15630;DHT22;7914;50.842;0.166;2023-12-04T12:45:14;7.90;100.00
15630;DHT22;7914;50.842;0.166;2023-12-04T12:47:42;7.90;100.00
15630;DHT22;7914;50.842;0.166;2023-12-04T12:50:11;7.80;100.00
15630;DHT22;7914;50.842;0.166;2023-12-04T12:52:39;7.90;100.00
15630;DHT22;7914;50.842;0.166;2023-12-04T12:55:05;7.90;100.00
15630;DHT22;7914;50.842;0.166;2023-12-04T12:57:31;7.80;100.00
15630;DHT22;7914;50.842;0.166;2023-12-04T12:59:57;7.90;100.00
15630;DHT22;7914;50.842;0.166;2023-12-04T13:02:22;7.90;100.00
15630;DHT22;7914;50.842;0.166;2023-12-04T13:04:48;7.90;100.00
15630;DHT22;7914;50.842;0.166;2023-12-04T13:07:16;7.90;100.00
15630;DHT22;7914;50.842;0.166;2023-12-04T13:09:42;7.90;100.00
15630;DHT22;7914;50.842;0.166;2023-12-04T13:12:08;7.90;100.00
15630;DHT22;7914;50.842;0.166;2023-12-04T13:14:35;8.00;100.00
15630;DHT22;7914;50.842;0.166;2023-12-04T13:17:02;7.90;100.00
15630;DHT22;7914;50.842;0.166;2023-12-04T13:19:28;7.90;100.00
15630;DHT22;7914;50.842;0.166;2023-12-04T13:21:54;7.90;100.00
15630;DHT22;7914;50.842;0.166;2023-12-04T13:24:20;7.90;100.00
15630;DHT22;7914;50.842;0.166;2023-12-04T13:26:45;7.80;100.00
15630;DHT22;7914;50.842;0.166;2023-12-04T13:29:12;7.80;100.00
15630;DHT22;7914;50.842;0.166;2023-12-04T13:31:41;7.80;100.00
15630;DHT22;7914;50.842;0.166;2023-12-04T13:34:06;7.80;100.00
15630;DHT22;7914;50.842;0.166;2023-12-04T13:36:35;7.70;100.00
15630;DHT22;7914;50.842;0.166;2023-12-04T13:39:02;7.80;100.00
15630;DHT22;7914;50.842;0.166;2023-12-04T13:41:30;7.80;100.00
15630;DHT22;7914;50.842;0.166;2023-12-04T13:44:15;7.70;100.00
15630;DHT22;7914;50.842;0.166;2023-12-04T13:46:41;7.70;100.00
15630;DHT22;7914;50.842;0.166;2023-12-04T13:49:06;7.80;100.00
15630;DHT22;7914;50.842;0.166;2023-12-04T13:51:32;7.70;100.00
15630;DHT22;7914;50.842;0.166;2023-12-04T13:54:00;7.70;100.00
15630;DHT22;7914;50.842;0.166;2023-12-04T13:56:35;7.70;100.00
15630;DHT22;7914;50.842;0.166;2023-12-04T13:59:18;7.70;100.00
15630;DHT22;7914;50.842;0.166;2023-12-04T14:01:46;7.70;100.00
15630;DHT22;7914;50.842;0.166;2023-12-04T14:04:12;7.70;100.00
15630;DHT22;7914;50.842;0.166;2023-12-04T14:06:38;7.70;100.00
15630;DHT22;7914;50.842;0.166;2023-12-04T14:09:03;7.70;100.00
15630;DHT22;7914;50.842;0.166;2023-12-04T14:11:38;7.70;100.00
15630;DHT22;7914;50.842;0.166;2023-12-04T14:14:04;7.70;100.00
15630;DHT22;7914;50.842;0.166;2023-12-04T14:16:33;7.70;100.00
15630;DHT22;7914;50.842;0.166;2023-12-04T14:18:58;7.70;100.00
15630;DHT22;7914;50.842;0.166;2023-12-04T14:21:24;7.70;100.00
15630;DHT22;7914;50.842;0.166;2023-12-04T14:23:50;7.80;100.00
15630;DHT22;7914;50.842;0.166;2023-12-04T14:26:16;7.80;100.00
15630;DHT22;7914;50.842;0.166;2023-12-04T14:28:41;7.80;100.00
15630;DHT22;7914;50.842;0.166;2023-12-04T14:31:07;7.80;100.00
15630;DHT22;7914;50.842;0.166;2023-12-04T14:33:33;7.80;100.00
15630;DHT22;7914;50.842;0.166;2023-12-04T14:35:59;7.80;100.00
15630;DHT22;7914;50.842;0.166;2023-12-04T14:38:25;7.80;100.00
15630;DHT22;7914;50.842;0.166;2023-12-04T14:40:51;7.90;100.00
15630;DHT22;7914;50.842;0.166;2023-12-04T14:43:18;7.80;100.00
15630;DHT22;7914;50.842;0.166;2023-12-04T14:45:43;7.80;100.00
15630;DHT22;7914;50.842;0.166;2023-12-04T14:48:10;7.90;100.00
15630;DHT22;7914;50.842;0.166;2023-12-04T14:50:36;7.90;100.00
15630;DHT22;7914;50.842;0.166;2023-12-04T14:53:03;7.90;100.00
15630;DHT22;7914;50.842;0.166;2023-12-04T14:55:52;7.80;100.00
15630;DHT22;7914;50.842;0.166;2023-12-04T14:58:37;7.90;100.00
15630;DHT22;7914;50.842;0.166;2023-12-04T15:01:12;7.90;100.00
15630;DHT22;7914;50.842;0.166;2023-12-04T15:04:07;7.90;100.00
15630;DHT22;7914;50.842;0.166;2023-12-04T15:06:51;7.90;100.00
15630;DHT22;7914;50.842;0.166;2023-12-04T15:09:52;7.90;100.00
15630;DHT22;7914;50.842;0.166;2023-12-04T15:12:56;7.90;100.00
15630;DHT22;7914;50.842;0.166;2023-12-04T15:15:30;7.90;100.00
15630;DHT22;7914;50.842;0.166;2023-12-04T15:18:14;7.90;100.00
15630;DHT22;7914;50.842;0.166;2023-12-04T15:21:03;7.90;100.00
15630;DHT22;7914;50.842;0.166;2023-12-04T15:23:29;7.90;100.00
15630;DHT22;7914;50.842;0.166;2023-12-04T15:25:55;7.90;100.00
15630;DHT22;7914;50.842;0.166;2023-12-04T15:28:21;7.90;100.00
15630;DHT22;7914;50.842;0.166;2023-12-04T15:30:48;7.90;100.00
15630;DHT22;7914;50.842;0.166;2023-12-04T15:33:14;7.90;100.00
15630;DHT22;7914;50.842;0.166;2023-12-04T15:35:40;7.90;100.00
15630;DHT22;7914;50.842;0.166;2023-12-04T15:38:07;7.90;100.00
15630;DHT22;7914;50.842;0.166;2023-12-04T15:40:33;7.90;100.00
15630;DHT22;7914;50.842;0.166;2023-12-04T15:42:59;7.90;100.00
15630;DHT22;7914;50.842;0.166;2023-12-04T15:45:24;7.90;100.00
15630;DHT22;7914;50.842;0.166;2023-12-04T15:47:50;8.00;100.00